Time;durP1;ratioP1;P1;durP2;ratioP2;P2;SDS_P1;SDS_P2;PMS_P1;PMS_P2;Temp;Humidity;BMP_temperature;BMP_pressure;BME280_temperature;BME280_humidity;BME280_pressure;Samples;Min_cycle;Max_cycle;Signal;HPM_P1;HPM_P2
2021/09/01 00:00:52;;;;;;;11.02;5.68;;;;;;;18.28;65.57;101341.34;5026771;28;20076;-79
2021/09/01 00:03:21;;;;;;;9.93;5.57;;;;;;;18.28;65.40;101361.09;5027027;28;20065;-79
2021/09/01 00:05:48;;;;;;;8.17;5.43;;;;;;;18.26;65.81;101359.41;5026744;28;20057;-80
2021/09/01 00:08:16;;;;;;;12.25;5.95;;;;;;;18.25;65.77;101356.97;5023746;28;20064;-79
2021/09/01 00:10:44;;;;;;;11.52;5.53;;;;;;;18.29;65.60;101363.56;5045524;28;20057;-79
2021/09/01 00:13:13;;;;;;;10.25;6.15;;;;;;;18.32;65.42;101370.50;5034251;28;20053;-78
2021/09/01 00:15:40;;;;;;;11.82;6.05;;;;;;;18.33;65.43;101370.16;5025694;28;20050;-80
2021/09/01 00:18:15;;;;;;;15.32;6.38;;;;;;;18.39;64.98;101370.75;5025773;28;20058;-79
2021/09/01 00:20:43;;;;;;;10.18;5.88;;;;;;;18.38;64.60;101371.94;5026250;28;20057;-80
2021/09/01 00:23:14;;;;;;;12.27;5.90;;;;;;;18.31;65.21;101374.47;5025969;28;20467;-79
2021/09/01 00:25:43;;;;;;;11.73;6.50;;;;;;;18.36;65.44;101371.47;5024830;28;20050;-79
2021/09/01 00:28:11;;;;;;;11.75;6.18;;;;;;;18.37;64.63;101370.28;5025523;28;20058;-79
2021/09/01 00:30:39;;;;;;;13.10;6.07;;;;;;;18.38;64.49;101378.41;5024888;28;20053;-79
2021/09/01 00:33:07;;;;;;;11.25;6.30;;;;;;;18.41;64.53;101376.88;5025875;28;20053;-80
2021/09/01 00:35:37;;;;;;;13.77;7.22;;;;;;;18.42;64.91;101376.53;5025957;28;20066;-79
2021/09/01 00:38:05;;;;;;;12.68;6.10;;;;;;;18.43;64.24;101374.53;5024837;28;20065;-80
2021/09/01 00:40:32;;;;;;;13.63;6.82;;;;;;;18.44;64.14;101367.75;5025710;28;20054;-78
2021/09/01 00:43:02;;;;;;;12.18;6.68;;;;;;;18.45;64.42;101373.00;5024922;28;20064;-80
2021/09/01 00:45:29;;;;;;;13.30;6.40;;;;;;;18.46;64.72;101373.88;5025927;28;20062;-79
2021/09/01 00:47:57;;;;;;;12.82;6.90;;;;;;;18.48;64.64;101370.66;5025252;28;20061;-80
2021/09/01 00:50:25;;;;;;;12.40;6.80;;;;;;;18.42;64.94;101370.91;5025558;28;20058;-80
2021/09/01 00:52:55;;;;;;;10.35;6.13;;;;;;;18.44;65.31;101370.56;5024299;28;20058;-80
2021/09/01 00:55:24;;;;;;;15.65;6.63;;;;;;;18.44;65.13;101370.56;5025235;28;20046;-79
2021/09/01 00:57:53;;;;;;;11.85;6.43;;;;;;;18.41;65.32;101366.41;5024708;28;20388;-79
2021/09/01 01:00:31;;;;;;;14.43;6.88;;;;;;;18.44;65.63;101364.91;5007778;28;20133;-79
2021/09/01 01:03:00;;;;;;;9.90;6.22;;;;;;;18.43;65.46;101357.63;5024869;28;20054;-80
2021/09/01 01:05:28;;;;;;;11.10;6.05;;;;;;;18.45;65.35;101360.91;5025189;28;20116;-80
2021/09/01 01:07:57;;;;;;;9.38;6.18;;;;;;;18.46;65.36;101363.41;5024069;28;20054;-80
2021/09/01 01:10:24;;;;;;;14.63;6.60;;;;;;;18.44;65.31;101370.56;5025185;28;20053;-80
2021/09/01 01:12:52;;;;;;;13.55;6.28;;;;;;;18.41;65.56;101374.06;5025263;28;20058;-80
2021/09/01 01:15:19;;;;;;;13.07;5.85;;;;;;;18.43;65.40;101368.91;5025196;28;20054;-80
2021/09/01 01:17:48;;;;;;;10.88;6.03;;;;;;;18.43;65.88;101380.19;5024742;28;20046;-79
2021/09/01 01:20:15;;;;;;;14.10;6.88;;;;;;;18.41;66.00;101371.22;5024553;28;20053;-79
2021/09/01 01:22:43;;;;;;;10.77;6.50;;;;;;;18.40;66.15;101369.59;5023958;28;20046;-79
2021/09/01 01:25:27;;;;;;;11.63;6.45;;;;;;;18.39;66.12;101367.94;5025339;28;20054;-79
2021/09/01 01:27:56;;;;;;;11.88;6.30;;;;;;;18.41;65.97;101371.22;5024668;28;20054;-79
2021/09/01 01:30:24;;;;;;;10.93;5.93;;;;;;;18.41;65.98;101371.22;5025510;28;20056;-79
2021/09/01 01:32:53;;;;;;;14.30;6.85;;;;;;;18.41;65.96;101371.22;5024399;28;20073;-80
2021/09/01 01:35:25;;;;;;;11.95;6.22;;;;;;;18.41;65.74;101372.06;5024676;28;20061;-79
2021/09/01 01:37:55;;;;;;;12.48;6.55;;;;;;;18.41;65.97;101365.59;5023915;28;20053;-79
2021/09/01 01:40:25;;;;;;;16.35;7.63;;;;;;;18.27;66.39;101371.53;5044091;28;20056;-79
2021/09/01 01:42:56;;;;;;;12.35;6.35;;;;;;;18.35;66.18;101369.78;5044483;28;20045;-79
2021/09/01 01:45:26;;;;;;;13.73;6.85;;;;;;;18.34;66.30;101370.97;5027549;28;20054;-78
2021/09/01 01:47:54;;;;;;;10.73;6.28;;;;;;;18.30;66.52;101365.19;5023894;28;20057;-79
2021/09/01 01:50:22;;;;;;;15.53;7.30;;;;;;;18.34;66.69;101368.97;5022686;28;20064;-78
2021/09/01 01:52:49;;;;;;;14.88;7.68;;;;;;;18.34;66.75;101360.50;5022270;28;20057;-80
2021/09/01 01:55:17;;;;;;;15.63;7.88;;;;;;;18.36;66.57;101374.28;5018203;28;20064;-79
2021/09/01 01:57:47;;;;;;;13.45;7.70;;;;;;;18.31;66.68;101371.66;5016376;28;20060;-80
2021/09/01 02:00:15;;;;;;;;;;;;;;;18.26;66.91;101375.53;5025469;28;20504;-79
2021/09/01 02:02:44;;;;;;;13.80;7.45;;;;;;;18.25;66.95;101366.25;5024018;28;19921;-80
2021/09/01 02:05:12;;;;;;;15.50;7.65;;;;;;;18.26;66.99;101373.50;5024231;28;20050;-80
2021/09/01 02:07:41;;;;;;;14.50;7.10;;;;;;;18.25;67.05;101365.41;5024209;28;20069;-80
2021/09/01 02:10:11;;;;;;;16.58;7.50;;;;;;;18.29;66.80;101374.00;5024527;28;20050;-80
2021/09/01 02:12:39;;;;;;;;;;;;;;;18.21;66.79;101370.91;5024850;28;20064;-80
2021/09/01 02:15:11;;;;;;;14.18;7.20;;;;;;;18.20;66.89;101369.25;5024055;28;20263;-80
2021/09/01 02:17:39;;;;;;;15.90;7.28;;;;;;;18.21;67.04;101368.09;5023466;28;20056;-80
2021/09/01 02:20:09;;;;;;;10.65;6.70;;;;;;;18.23;66.65;101364.94;5024367;28;20058;-80
2021/09/01 02:22:37;;;;;;;10.07;6.93;;;;;;;18.19;66.30;101353.53;5007354;28;20057;-79
2021/09/01 02:25:06;;;;;;;15.18;7.80;;;;;;;18.18;66.22;101354.66;5034565;28;20409;-79
2021/09/01 02:27:34;;;;;;;12.90;7.23;;;;;;;18.17;66.32;101355.84;5035621;28;20056;-80
2021/09/01 02:30:02;;;;;;;14.02;7.68;;;;;;;18.17;66.61;101355.84;5003977;28;20058;-80
2021/09/01 02:32:31;;;;;;;15.20;6.85;;;;;;;18.18;66.14;101357.50;4986682;28;20061;-79
2021/09/01 02:34:59;;;;;;;13.25;7.03;;;;;;;18.17;66.31;101361.50;4986892;28;20043;-80
2021/09/01 02:37:27;;;;;;;11.07;6.93;;;;;;;18.17;66.59;101355.84;5003895;28;20396;-80
2021/09/01 02:39:54;;;;;;;13.48;6.97;;;;;;;18.19;66.25;101361.97;5018997;28;20052;-79
2021/09/01 02:42:23;;;;;;;12.95;7.40;;;;;;;18.20;66.66;101355.16;5023345;28;20061;-78
2021/09/01 02:44:50;;;;;;;13.80;7.35;;;;;;;18.20;67.02;101365.63;5022666;28;20057;-79
2021/09/01 02:47:18;;;;;;;11.50;7.00;;;;;;;18.17;67.37;101374.78;5022724;28;20418;-80
2021/09/01 02:49:49;;;;;;;13.00;7.03;;;;;;;18.17;67.41;101366.31;5022848;28;20050;-79
2021/09/01 02:52:17;;;;;;;10.63;7.35;;;;;;;18.16;67.12;101376.75;5018149;28;20060;-80
2021/09/01 02:54:44;;;;;;;12.68;7.20;;;;;;;18.15;67.44;101386.38;5025263;28;20498;-78
2021/09/01 02:57:11;;;;;;;12.25;6.65;;;;;;;18.17;67.56;101369.13;5019165;28;20080;-80
2021/09/01 02:59:39;;;;;;;12.43;6.82;;;;;;;18.15;67.50;101374.28;5018368;28;20065;-79
2021/09/01 03:02:06;;;;;;;12.10;7.28;;;;;;;18.12;67.57;101363.69;5017749;28;20058;-79
2021/09/01 03:04:33;;;;;;;14.57;6.75;;;;;;;18.12;67.35;101370.19;5018894;28;20474;-78
2021/09/01 03:07:02;;;;;;;15.27;6.78;;;;;;;18.13;67.30;101366.16;5018773;28;20058;-79
2021/09/01 03:09:29;;;;;;;16.23;7.43;;;;;;;18.11;67.42;101379.78;5018544;28;20513;-79
2021/09/01 03:11:57;;;;;;;12.27;7.43;;;;;;;18.13;67.40;101368.19;5018936;28;20049;-79
2021/09/01 03:14:24;;;;;;;16.02;8.30;;;;;;;18.12;66.84;101367.34;5017907;28;20479;-80
2021/09/01 03:16:51;;;;;;;12.95;7.22;;;;;;;18.06;67.01;101363.09;5018337;28;20058;-79
2021/09/01 03:19:19;;;;;;;16.05;7.40;;;;;;;17.98;67.40;101367.63;5018662;28;20049;-80
2021/09/01 03:21:46;;;;;;;14.45;8.02;;;;;;;18.10;66.20;101380.13;5018619;28;20061;-79
2021/09/01 03:24:15;;;;;;;15.57;7.38;;;;;;;18.10;65.92;101372.50;5026948;28;20057;-79
2021/09/01 03:26:42;;;;;;;16.55;8.35;;;;;;;18.10;66.23;101361.22;5038062;28;20057;-79
2021/09/01 03:29:10;;;;;;;15.05;7.85;;;;;;;18.09;65.87;101365.22;5034051;28;20410;-79
2021/09/01 03:31:37;;;;;;;13.52;8.13;;;;;;;18.10;65.82;101368.84;5018720;28;20475;-79
2021/09/01 03:34:04;;;;;;;14.07;8.50;;;;;;;18.09;64.68;101373.66;5017833;28;20049;-79
2021/09/01 03:36:32;;;;;;;14.77;8.73;;;;;;;18.09;65.30;101375.66;5017994;28;20054;-79
2021/09/01 03:38:59;;;;;;;18.15;7.88;;;;;;;18.07;65.86;101378.81;5018425;28;20049;-79
2021/09/01 03:41:28;;;;;;;13.52;8.05;;;;;;;18.06;65.72;101380.00;5017846;28;20494;-80
2021/09/01 03:43:55;;;;;;;15.87;9.13;;;;;;;18.05;65.93;101381.97;5018550;28;20172;-79
2021/09/01 03:46:22;;;;;;;15.15;8.52;;;;;;;18.08;65.76;101386.13;5018100;28;20050;-79
2021/09/01 03:48:50;;;;;;;13.93;8.02;;;;;;;18.07;65.61;101383.66;5027148;28;20049;-79
2021/09/01 03:51:17;;;;;;;16.92;8.85;;;;;;;18.03;65.61;101378.69;5037622;28;20053;-79
2021/09/01 03:53:44;;;;;;;14.82;9.23;;;;;;;18.07;65.20;101378.81;5037870;28;20053;-80
2021/09/01 03:56:12;;;;;;;16.88;8.55;;;;;;;18.08;65.19;101393.75;4998832;28;20395;-80
2021/09/01 03:58:40;;;;;;;19.30;9.05;;;;;;;18.07;65.03;101384.47;4998101;28;20057;-79
2021/09/01 04:01:08;;;;;;;16.52;9.40;;;;;;;18.02;65.05;101382.69;4998566;28;20062;-79
2021/09/01 04:03:35;;;;;;;12.93;8.52;;;;;;;18.03;65.26;101380.69;5017464;28;20391;-79
2021/09/01 04:06:04;;;;;;;14.95;9.05;;;;;;;18.04;65.37;101387.97;5038474;28;20053;-77
2021/09/01 04:08:32;;;;;;;16.35;9.60;;;;;;;18.01;64.97;101392.28;5036952;28;20057;-79
2021/09/01 04:10:59;;;;;;;15.85;8.90;;;;;;;18.00;65.08;101392.66;5037890;28;20057;-79
2021/09/01 04:13:26;;;;;;;14.65;8.25;;;;;;;17.98;65.24;101389.34;5038190;28;20509;-79
2021/09/01 04:15:55;;;;;;;11.07;7.53;;;;;;;17.99;65.15;101393.81;5041548;28;20056;-78
2021/09/01 04:18:22;;;;;;;16.20;8.33;;;;;;;17.95;65.46;101399.28;5040117;28;20057;-79
2021/09/01 04:20:50;;;;;;;14.93;8.95;;;;;;;17.93;65.57;101406.44;5041034;28;20487;-79
2021/09/01 04:23:17;;;;;;;11.80;7.40;;;;;;;17.92;65.55;101402.00;5040197;28;20483;-78
2021/09/01 04:25:44;;;;;;;10.93;6.90;;;;;;;17.93;65.41;101406.44;5038408;28;20057;-78
2021/09/01 04:28:11;;;;;;;11.45;6.20;;;;;;;17.93;65.68;101409.25;5041132;28;20053;-79
2021/09/01 04:30:39;;;;;;;12.52;6.32;;;;;;;17.90;65.63;101412.78;5041040;28;20053;-79
2021/09/01 04:33:07;;;;;;;9.75;5.85;;;;;;;17.90;65.55;101407.97;5041506;28;20060;-80
2021/09/01 04:35:35;;;;;;;11.77;5.90;;;;;;;17.88;65.66;101406.66;5041520;28;20057;-79
2021/09/01 04:38:02;;;;;;;13.43;7.10;;;;;;;17.85;65.63;101411.81;5040697;28;20396;-79
2021/09/01 04:40:30;;;;;;;15.07;6.25;;;;;;;17.89;66.05;101402.66;5039963;28;20050;-79
2021/09/01 04:42:57;;;;;;;9.95;5.70;;;;;;;17.84;66.07;101404.50;5041091;28;20053;-80
2021/09/01 04:45:24;;;;;;;13.18;6.40;;;;;;;17.87;66.20;101405.00;5040263;28;20053;-79
2021/09/01 04:47:52;;;;;;;11.30;5.72;;;;;;;17.90;66.41;101399.50;5040034;28;20061;-79
2021/09/01 04:50:20;;;;;;;10.55;6.35;;;;;;;17.90;66.05;101407.16;5034564;28;20057;-79
2021/09/01 04:52:48;;;;;;;11.98;6.35;;;;;;;17.89;66.19;101408.28;5021341;28;20518;-80
2021/09/01 04:55:17;;;;;;;13.30;6.65;;;;;;;17.89;66.00;101411.97;5000994;28;20065;-79
2021/09/01 04:57:44;;;;;;;11.35;7.03;;;;;;;17.89;66.11;101406.31;5000169;28;20050;-79
2021/09/01 05:00:14;;;;;;;13.38;6.18;;;;;;;17.90;66.20;101410.78;5002133;28;20058;-79
2021/09/01 05:02:41;;;;;;;14.32;6.72;;;;;;;17.89;65.71;101414.78;5001576;28;20054;-79
2021/09/01 05:05:10;;;;;;;13.65;6.78;;;;;;;17.91;66.07;101408.78;5002048;28;20062;-78
2021/09/01 05:07:38;;;;;;;13.32;7.40;;;;;;;17.91;66.07;101411.59;5004577;28;20047;-78
2021/09/01 05:10:06;;;;;;;13.90;7.60;;;;;;;17.90;65.90;101412.78;5027597;28;20061;-79
2021/09/01 05:12:33;;;;;;;11.23;7.18;;;;;;;17.89;66.27;101413.94;5020694;28;20489;-79
2021/09/01 05:15:01;;;;;;;14.40;7.57;;;;;;;17.90;65.87;101415.59;5015792;28;20050;-79
2021/09/01 05:17:28;;;;;;;12.57;7.60;;;;;;;17.91;65.67;101414.41;5020327;28;20399;-78
2021/09/01 05:19:56;;;;;;;15.13;7.70;;;;;;;17.94;65.68;101410.94;5020640;28;20054;-79
2021/09/01 05:22:24;;;;;;;14.85;8.13;;;;;;;17.96;65.65;101411.41;5004248;28;20065;-79
2021/09/01 05:25:02;;;;;;;15.70;8.60;;;;;;;17.96;65.64;101417.06;5017310;28;20053;-78
2021/09/01 05:27:32;;;;;;;10.43;7.65;;;;;;;17.94;65.83;101420.22;5019924;28;20049;-79
2021/09/01 05:30:01;;;;;;;15.70;7.55;;;;;;;17.97;65.67;101424.34;5020571;28;20053;-78
2021/09/01 05:32:30;;;;;;;13.32;7.45;;;;;;;17.96;65.26;101422.69;5017913;28;20057;-79
2021/09/01 05:34:59;;;;;;;15.20;7.57;;;;;;;17.84;65.93;101426.25;5020545;28;20077;-79
2021/09/01 05:37:28;;;;;;;14.32;7.22;;;;;;;17.91;66.12;101428.50;5020507;28;20050;-79
2021/09/01 05:39:58;;;;;;;10.38;6.85;;;;;;;17.94;66.04;101430.66;5020187;28;20069;-79
2021/09/01 05:42:29;;;;;;;11.93;7.05;;;;;;;17.97;65.65;101421.50;5037322;28;20053;-79
2021/09/01 05:44:57;;;;;;;12.13;6.65;;;;;;;17.98;66.03;101429.63;5030532;28;20072;-80
2021/09/01 05:47:25;;;;;;;14.15;7.25;;;;;;;17.93;66.15;101418.56;5019471;28;20053;-79
2021/09/01 05:49:55;;;;;;;11.88;6.65;;;;;;;18.01;65.18;101430.94;5019871;28;20612;-79
2021/09/01 05:52:23;;;;;;;;;;;;;;;18.02;65.09;101429.78;5020749;28;20081;-79
2021/09/01 05:54:52;;;;;;;11.75;6.45;;;;;;;18.00;64.49;101430.13;5018634;28;20310;-79
2021/09/01 05:57:27;;;;;;;9.73;5.57;;;;;;;18.00;65.09;101430.13;5017859;28;20046;-77
2021/09/01 05:59:57;;;;;;;13.60;5.57;;;;;;;18.08;64.58;101436.03;4985230;28;20054;-77
2021/09/01 06:02:31;;;;;;;8.30;5.45;;;;;;;18.15;64.40;101441.97;4994762;28;20495;-77
2021/09/01 06:05:02;;;;;;;12.70;6.22;;;;;;;18.19;65.13;101440.94;4994657;28;20050;-77
2021/09/01 06:07:30;;;;;;;8.40;5.80;;;;;;;18.28;64.33;101434.41;4982325;28;20050;-77
2021/09/01 06:10:00;;;;;;;10.15;5.93;;;;;;;18.35;63.89;101434.66;4975623;28;20431;-77
2021/09/01 06:12:32;;;;;;;9.68;5.68;;;;;;;18.34;63.84;101435.84;4983321;28;20081;-78
2021/09/01 06:14:59;;;;;;;11.13;6.35;;;;;;;18.48;63.23;101430.75;4979597;28;20054;-78
2021/09/01 06:17:26;;;;;;;10.73;5.70;;;;;;;18.56;62.99;101423.38;4997352;28;20050;-78
2021/09/01 06:19:53;;;;;;;12.88;6.07;;;;;;;18.64;62.52;101426.13;5000387;28;20069;-78
2021/09/01 06:22:21;;;;;;;10.68;6.63;;;;;;;18.70;62.16;101432.38;4996473;28;20627;-78
2021/09/01 06:24:48;;;;;;;10.65;5.57;;;;;;;18.51;62.73;101427.25;4982098;28;20062;-77
2021/09/01 06:27:15;;;;;;;10.52;5.78;;;;;;;18.68;62.63;101429.06;4975870;28;20500;-78
2021/09/01 06:29:44;;;;;;;11.30;6.28;;;;;;;18.78;62.00;101430.66;4978002;28;20054;-77
2021/09/01 06:32:11;;;;;;;8.57;5.25;;;;;;;18.80;62.09;101428.34;4977408;28;20399;-77
2021/09/01 06:34:40;;;;;;;10.05;5.90;;;;;;;18.77;62.38;101429.84;4974949;28;20055;-78
2021/09/01 06:37:07;;;;;;;9.65;6.32;;;;;;;18.81;62.10;101429.97;4974475;28;20392;-78
2021/09/01 06:39:35;;;;;;;11.13;6.35;;;;;;;18.90;62.18;101433.56;4985580;28;20055;-78
2021/09/01 06:42:03;;;;;;;11.45;6.45;;;;;;;18.97;61.74;101433.81;4975651;28;20059;-77
2021/09/01 06:44:31;;;;;;;10.45;6.35;;;;;;;18.97;61.57;101433.81;4975863;28;20062;-77
2021/09/01 06:46:59;;;;;;;9.00;5.85;;;;;;;18.98;61.21;101437.44;4975325;28;20051;-77
2021/09/01 06:49:26;;;;;;;9.47;6.63;;;;;;;19.03;61.17;101435.22;4975424;28;20459;-77
2021/09/01 06:51:54;;;;;;;11.05;6.70;;;;;;;18.94;60.50;101428.88;4975101;28;20062;-77
2021/09/01 06:54:21;;;;;;;11.00;6.95;;;;;;;19.08;59.79;101433.38;4978991;28;20055;-80
2021/09/01 06:56:49;;;;;;;10.57;7.03;;;;;;;19.16;60.44;101436.09;4984552;28;20483;-78
2021/09/01 06:59:16;;;;;;;10.40;6.85;;;;;;;19.15;59.72;101447.72;5009682;28;20064;-79
2021/09/01 07:01:43;;;;;;;11.43;7.55;;;;;;;19.22;60.04;101439.53;5010169;28;20045;-80
2021/09/01 07:04:12;;;;;;;10.27;6.72;;;;;;;19.23;59.88;101442.00;5008705;28;20612;-80
2021/09/01 07:06:39;;;;;;;9.60;6.78;;;;;;;19.31;59.86;101437.41;5007218;28;20051;-78
2021/09/01 07:09:07;;;;;;;10.85;7.18;;;;;;;19.32;59.49;101444.72;5004139;28;20499;-80
2021/09/01 07:11:34;;;;;;;11.57;7.47;;;;;;;19.32;59.30;101447.53;5014766;28;20061;-79
2021/09/01 07:14:01;;;;;;;12.40;7.35;;;;;;;19.31;59.03;101448.72;5000237;28;20065;-80
2021/09/01 07:16:29;;;;;;;12.10;7.20;;;;;;;19.37;58.46;101461.44;4996335;28;20495;-79
2021/09/01 07:18:56;;;;;;;10.88;6.97;;;;;;;19.40;58.45;101466.41;5003985;28;20050;-79
2021/09/01 07:21:25;;;;;;;13.40;7.88;;;;;;;19.39;59.08;101467.56;5009324;28;20072;-79
2021/09/01 07:23:54;;;;;;;9.00;6.40;;;;;;;19.44;58.91;101467.34;4997046;28;20051;-79
2021/09/01 07:26:21;;;;;;;12.45;6.93;;;;;;;19.48;58.43;101471.09;5010942;28;20057;-80
2021/09/01 07:28:49;;;;;;;11.15;6.75;;;;;;;19.50;58.72;101467.09;5006229;28;20054;-80
2021/09/01 07:31:16;;;;;;;9.98;6.13;;;;;;;19.50;58.02;101472.75;5005282;28;20059;-80
2021/09/01 07:33:43;;;;;;;11.85;6.85;;;;;;;19.30;58.22;101469.66;5019424;28;20054;-80
2021/09/01 07:36:11;;;;;;;9.10;6.03;;;;;;;19.41;58.28;101476.50;5016589;28;20050;-79
2021/09/01 07:38:40;;;;;;;10.30;6.30;;;;;;;19.46;58.24;101475.44;5015815;28;20056;-79
2021/09/01 07:41:07;;;;;;;11.60;6.38;;;;;;;19.44;58.32;101477.81;5020356;28;20054;-79
2021/09/01 07:43:34;;;;;;;10.07;6.80;;;;;;;19.46;58.26;101483.94;5020174;28;20065;-79
2021/09/01 07:46:02;;;;;;;10.48;6.80;;;;;;;19.45;58.48;101483.13;5016357;28;20046;-80
2021/09/01 07:48:29;;;;;;;11.35;6.50;;;;;;;19.45;58.30;101487.94;5017310;28;20057;-80
2021/09/01 07:50:56;;;;;;;11.55;6.53;;;;;;;19.47;58.28;101488.44;5022808;28;20057;-80
2021/09/01 07:53:24;;;;;;;12.77;6.85;;;;;;;19.43;58.42;101493.94;5022503;28;20053;-80
2021/09/01 07:55:52;;;;;;;14.88;7.45;;;;;;;19.40;58.92;101497.47;5018987;28;20050;-78
2021/09/01 07:58:20;;;;;;;10.05;6.40;;;;;;;19.37;58.87;101503.00;5019618;28;20049;-80
2021/09/01 08:00:47;;;;;;;16.75;7.53;;;;;;;19.33;59.12;101513.34;5018989;28;20050;-78
2021/09/01 08:03:14;;;;;;;11.98;6.60;;;;;;;19.36;59.35;101515.47;5014955;28;20058;-80
2021/09/01 08:05:42;;;;;;;14.30;7.20;;;;;;;19.34;59.28;101521.47;5020484;28;20041;-79
2021/09/01 08:08:09;;;;;;;10.98;6.35;;;;;;;19.40;58.87;101516.41;5014376;28;20093;-78
2021/09/01 08:10:36;;;;;;;12.18;6.22;;;;;;;19.35;58.86;101525.94;5021219;28;20061;-79
2021/09/01 08:13:05;;;;;;;13.80;7.05;;;;;;;19.35;58.76;101527.94;5014157;28;20057;-79
2021/09/01 08:15:33;;;;;;;15.13;7.65;;;;;;;19.21;58.89;101528.25;5013195;28;20050;-78
2021/09/01 08:18:00;;;;;;;11.73;6.55;;;;;;;19.22;58.44;101535.56;5024985;28;20041;-79
2021/09/01 08:20:28;;;;;;;12.20;6.85;;;;;;;19.18;58.78;101538.25;5021605;28;20065;-79
2021/09/01 08:22:56;;;;;;;10.77;6.30;;;;;;;19.18;58.57;101541.06;5013121;28;20062;-78
2021/09/01 08:25:23;;;;;;;8.73;6.13;;;;;;;19.13;59.10;101546.09;5023915;28;20060;-79
2021/09/01 08:27:50;;;;;;;11.60;6.47;;;;;;;19.16;59.19;101545.41;5011683;28;20069;-78
2021/09/01 08:30:19;;;;;;;12.50;5.97;;;;;;;19.20;59.10;101537.91;5010757;28;20061;-78
2021/09/01 08:32:47;;;;;;;11.90;6.28;;;;;;;19.17;59.20;101547.91;5017489;28;20056;-79
2021/09/01 08:35:14;;;;;;;10.57;6.60;;;;;;;19.21;59.07;101542.38;5019662;28;20046;-77
2021/09/01 08:37:42;;;;;;;10.82;6.45;;;;;;;19.26;59.56;101536.50;5018347;28;20074;-78
2021/09/01 08:40:10;;;;;;;11.65;5.78;;;;;;;19.30;59.67;101547.94;5015813;28;20064;-79
2021/09/01 08:42:38;;;;;;;14.02;6.35;;;;;;;19.24;60.15;101544.50;5020303;28;20097;-77
2021/09/01 08:45:07;;;;;;;11.70;5.82;;;;;;;19.33;59.38;101542.41;5004317;28;20059;-79
2021/09/01 08:47:36;;;;;;;15.00;6.30;;;;;;;19.36;59.19;101532.41;5014989;28;20057;-77
2021/09/01 08:50:06;;;;;;;11.05;6.18;;;;;;;19.41;59.29;101544.31;5006340;28;20472;-79
2021/09/01 08:52:34;;;;;;;10.90;5.63;;;;;;;19.45;59.04;101541.63;5007790;28;20054;-80
2021/09/01 08:55:02;;;;;;;11.73;5.90;;;;;;;19.48;58.92;101555.88;5005375;28;20399;-80
2021/09/01 08:57:29;;;;;;;10.35;6.38;;;;;;;19.50;58.29;101546.22;5004198;28;20431;-79
2021/09/01 08:59:56;;;;;;;10.70;6.50;;;;;;;19.50;58.81;101557.53;5005173;28;20057;-80
2021/09/01 09:02:29;;;;;;;10.30;6.00;;;;;;;19.56;58.47;101547.66;5007482;28;20069;-79
2021/09/01 09:04:58;;;;;;;10.05;6.20;;;;;;;19.58;57.92;101548.16;5014072;28;20053;-79
2021/09/01 09:07:25;;;;;;;12.43;6.97;;;;;;;19.56;58.30;101548.47;5002009;28;21078;-80
2021/09/01 09:09:53;;;;;;;13.30;6.72;;;;;;;19.61;58.11;101555.91;5012625;28;20498;-79
2021/09/01 09:12:30;;;;;;;12.85;6.50;;;;;;;19.60;58.72;101552.25;5012894;28;20480;-79
2021/09/01 09:14:58;;;;;;;14.68;6.30;;;;;;;19.60;59.01;101552.25;5009416;28;20138;-78
2021/09/01 09:17:35;;;;;;;10.30;6.43;;;;;;;19.56;59.74;101554.13;4999256;28;20058;-79
2021/09/01 09:20:06;;;;;;;9.65;6.10;;;;;;;19.57;59.73;101552.97;5004231;28;20056;-77
2021/09/01 09:22:36;;;;;;;11.35;6.30;;;;;;;19.62;60.24;101555.56;5007314;28;20054;-78
2021/09/01 09:25:10;;;;;;;11.40;5.45;;;;;;;19.62;59.02;101549.09;5015069;28;20056;-80
2021/09/01 09:27:47;;;;;;;9.02;5.38;;;;;;;19.65;58.15;101554.03;5019137;28;20058;-79
2021/09/01 09:30:45;;;;;;;10.40;5.55;;;;;;;19.70;58.26;101555.81;5016216;28;20072;-78
2021/09/01 09:33:15;;;;;;;10.82;6.45;;;;;;;19.80;57.90;101555.38;5018168;28;20525;-79
2021/09/01 09:35:54;;;;;;;8.43;5.45;;;;;;;19.83;56.93;101555.50;5010773;28;20054;-79
2021/09/01 09:38:37;;;;;;;10.15;5.78;;;;;;;19.95;57.39;101559.53;5007834;28;20057;-79
2021/09/01 09:41:06;;;;;;;9.02;5.47;;;;;;;20.07;56.75;101548.22;5016674;28;20408;-78
2021/09/01 09:43:35;;;;;;;12.13;5.80;;;;;;;20.10;56.13;101552.38;5016691;28;20061;-78
2021/09/01 09:46:10;;;;;;;15.00;6.57;;;;;;;20.19;56.05;101555.91;5016345;28;20046;-79
2021/09/01 09:48:40;;;;;;;12.63;6.53;;;;;;;20.22;56.02;101556.03;5020992;28;20050;-78
2021/09/01 09:51:12;;;;;;;12.07;6.13;;;;;;;20.24;55.66;101558.47;5009213;28;20046;-78
2021/09/01 09:53:43;;;;;;;11.55;6.05;;;;;;;20.25;56.11;101554.47;5007452;28;20051;-78
2021/09/01 09:56:15;;;;;;;12.18;5.70;;;;;;;20.31;55.96;101553.06;5003834;28;20058;-78
2021/09/01 09:58:44;;;;;;;11.82;6.35;;;;;;;20.36;56.07;101552.00;5003572;28;20521;-78
2021/09/01 10:01:13;;;;;;;10.27;6.00;;;;;;;20.43;56.01;101552.22;5011791;28;20054;-78
2021/09/01 10:03:41;;;;;;;9.25;6.10;;;;;;;20.52;54.64;101547.25;5008602;28;20151;-78
2021/09/01 10:06:14;;;;;;;11.35;5.68;;;;;;;20.46;54.69;101548.69;5005969;28;20061;-78
2021/09/01 10:08:44;;;;;;;14.30;6.28;;;;;;;20.54;54.56;101544.09;5003770;28;20059;-78
2021/09/01 10:11:13;;;;;;;9.82;5.38;;;;;;;20.48;55.33;101544.31;5016436;28;20053;-78
2021/09/01 10:13:42;;;;;;;14.70;7.10;;;;;;;20.39;55.29;101549.28;5011592;28;20054;-78
2021/09/01 10:16:15;;;;;;;12.60;6.35;;;;;;;20.43;55.39;101553.06;5002363;28;20059;-77
2021/09/01 10:18:46;;;;;;;9.38;6.03;;;;;;;20.41;55.66;101554.56;5019056;28;20162;-79
2021/09/01 10:21:18;;;;;;;12.75;6.45;;;;;;;20.37;55.97;101557.31;5015604;28;20053;-80
2021/09/01 10:23:47;;;;;;;13.15;6.07;;;;;;;20.38;55.33;101552.47;5020967;28;20518;-79
2021/09/01 10:26:23;;;;;;;12.50;6.35;;;;;;;20.35;56.14;101559.66;5014488;28;20407;-79
2021/09/01 10:28:51;;;;;;;12.82;6.40;;;;;;;20.28;56.50;101548.94;5006741;28;20054;-80
2021/09/01 10:31:23;;;;;;;10.48;6.68;;;;;;;20.32;56.26;101546.22;5006126;28;20054;-80
2021/09/01 10:33:52;;;;;;;15.57;7.00;;;;;;;20.30;56.61;101542.91;5013363;28;20045;-79
2021/09/01 10:36:39;;;;;;;10.65;7.30;;;;;;;20.35;55.56;101544.66;5013585;28;20488;-79
2021/09/01 10:39:45;;;;;;;12.57;6.60;;;;;;;20.40;55.57;101547.28;5016264;28;20076;-79
2021/09/01 10:42:34;;;;;;;15.15;7.25;;;;;;;20.34;54.92;101537.38;4996898;28;20058;-81
2021/09/01 10:45:04;;;;;;;13.43;6.72;;;;;;;20.44;54.90;101539.72;5008418;28;20053;-80
2021/09/01 10:48:02;;;;;;;9.80;6.30;;;;;;;20.51;55.19;101544.78;5000343;28;20064;-81
2021/09/01 10:50:31;;;;;;;13.33;6.70;;;;;;;20.56;55.14;101542.53;5007552;28;20049;-81
2021/09/01 10:53:04;;;;;;;11.32;6.85;;;;;;;20.71;54.35;101543.03;5009080;28;20480;-81
2021/09/01 10:55:33;;;;;;;13.38;6.60;;;;;;;20.68;54.40;101551.03;5007439;28;20072;-81
2021/09/01 10:58:21;;;;;;;11.57;6.03;;;;;;;20.85;54.20;101543.44;5005619;28;20089;-80
2021/09/01 11:00:57;;;;;;;13.55;6.57;;;;;;;20.97;54.07;101537.72;5009106;28;20052;-80
2021/09/01 11:03:33;;;;;;;13.27;6.82;;;;;;;21.10;53.23;101544.16;5013027;28;20059;-78
2021/09/01 11:06:24;;;;;;;10.73;7.43;;;;;;;21.28;52.50;101541.84;5013440;28;20054;-80
2021/09/01 11:09:08;;;;;;;11.80;7.00;;;;;;;21.47;51.96;101539.19;5004240;28;20072;-79
2021/09/01 11:11:50;;;;;;;11.45;6.95;;;;;;;21.55;51.88;101540.19;5002516;28;20384;-79
2021/09/01 11:14:42;;;;;;;11.50;7.38;;;;;;;21.66;51.04;101544.13;5005936;28;20054;-80
2021/09/01 11:17:11;;;;;;;13.82;7.53;;;;;;;21.76;51.31;101536.28;4999608;28;20431;-80
2021/09/01 11:19:40;;;;;;;13.23;7.45;;;;;;;21.89;50.36;101533.00;5007091;28;20390;-81
2021/09/01 11:22:09;;;;;;;11.63;7.72;;;;;;;21.95;49.79;101527.06;5016521;28;20053;-81
2021/09/01 11:24:45;;;;;;;;;;;;;;;22.06;49.81;101528.94;5031743;28;20398;-79
2021/09/01 11:27:14;;;;;;;11.88;8.48;;;;;;;22.06;48.61;101526.09;5003330;28;19929;-79
2021/09/01 11:29:43;;;;;;;10.35;8.20;;;;;;;22.17;48.53;101522.72;5017640;28;20046;-80